sensor_id;sensor_type;location;lat;lon;timestamp;P1;durP1;ratioP1;P2;durP2;ratioP2
68214;SDS011;55036;52.138;5.236;2023-04-30T00:00:51;9.98;;;6.38;;
68214;SDS011;55036;52.138;5.236;2023-04-30T00:03:17;11.23;;;6.20;;
68214;SDS011;55036;52.138;5.236;2023-04-30T00:05:44;9.98;;;6.20;;
68214;SDS011;55036;52.138;5.236;2023-04-30T00:08:15;11.05;;;6.28;;
68214;SDS011;55036;52.138;5.236;2023-04-30T00:10:41;13.05;;;6.43;;
68214;SDS011;55036;52.138;5.236;2023-04-30T00:13:08;12.68;;;6.82;;
68214;SDS011;55036;52.138;5.236;2023-04-30T00:48:05;15.13;;;7.22;;
68214;SDS011;55036;52.138;5.236;2023-04-30T00:50:33;12.15;;;8.55;;
68214;SDS011;55036;52.138;5.236;2023-04-30T00:53:01;12.15;;;6.88;;
68214;SDS011;55036;52.138;5.236;2023-04-30T00:55:28;11.63;;;7.10;;
68214;SDS011;55036;52.138;5.236;2023-04-30T00:57:55;12.57;;;7.68;;
68214;SDS011;55036;52.138;5.236;2023-04-30T01:00:22;10.27;;;7.18;;
68214;SDS011;55036;52.138;5.236;2023-04-30T01:02:50;13.93;;;7.60;;
68214;SDS011;55036;52.138;5.236;2023-04-30T01:05:17;11.57;;;8.43;;
68214;SDS011;55036;52.138;5.236;2023-04-30T01:07:43;10.38;;;6.55;;
68214;SDS011;55036;52.138;5.236;2023-04-30T01:10:12;11.55;;;7.72;;
68214;SDS011;55036;52.138;5.236;2023-04-30T01:20:21;11.68;;;7.10;;
68214;SDS011;55036;52.138;5.236;2023-04-30T01:22:54;13.27;;;7.43;;
68214;SDS011;55036;52.138;5.236;2023-04-30T01:25:50;13.45;;;6.95;;
68214;SDS011;55036;52.138;5.236;2023-04-30T01:28:39;10.98;;;7.03;;
68214;SDS011;55036;52.138;5.236;2023-04-30T01:31:12;12.68;;;6.80;;
68214;SDS011;55036;52.138;5.236;2023-04-30T01:33:40;12.23;;;7.03;;
68214;SDS011;55036;52.138;5.236;2023-04-30T01:52:51;10.93;;;6.32;;
68214;SDS011;55036;52.138;5.236;2023-04-30T01:58:09;9.90;;;6.28;;
68214;SDS011;55036;52.138;5.236;2023-04-30T02:00:38;15.30;;;7.25;;
68214;SDS011;55036;52.138;5.236;2023-04-30T02:03:05;10.75;;;7.25;;
68214;SDS011;55036;52.138;5.236;2023-04-30T02:05:32;14.60;;;7.60;;
68214;SDS011;55036;52.138;5.236;2023-04-30T02:07:59;12.77;;;8.07;;
68214;SDS011;55036;52.138;5.236;2023-04-30T02:10:26;12.00;;;7.00;;
68214;SDS011;55036;52.138;5.236;2023-04-30T02:12:54;13.45;;;7.40;;
68214;SDS011;55036;52.138;5.236;2023-04-30T02:15:21;10.93;;;6.95;;
68214;SDS011;55036;52.138;5.236;2023-04-30T02:17:48;13.43;;;7.13;;
68214;SDS011;55036;52.138;5.236;2023-04-30T02:20:15;10.25;;;7.18;;
68214;SDS011;55036;52.138;5.236;2023-04-30T02:22:41;14.93;;;8.02;;
68214;SDS011;55036;52.138;5.236;2023-04-30T02:25:08;13.63;;;7.70;;
68214;SDS011;55036;52.138;5.236;2023-04-30T02:27:37;17.33;;;8.27;;
68214;SDS011;55036;52.138;5.236;2023-04-30T02:30:04;14.07;;;7.50;;
68214;SDS011;55036;52.138;5.236;2023-04-30T02:32:31;11.57;;;7.60;;
68214;SDS011;55036;52.138;5.236;2023-04-30T02:34:58;12.88;;;7.85;;
68214;SDS011;55036;52.138;5.236;2023-04-30T02:37:25;11.65;;;7.47;;
68214;SDS011;55036;52.138;5.236;2023-04-30T02:39:52;10.50;;;7.78;;
68214;SDS011;55036;52.138;5.236;2023-04-30T02:42:19;15.00;;;9.73;;
68214;SDS011;55036;52.138;5.236;2023-04-30T02:44:46;13.52;;;7.72;;
68214;SDS011;55036;52.138;5.236;2023-04-30T02:47:12;14.13;;;8.30;;
68214;SDS011;55036;52.138;5.236;2023-04-30T02:49:39;15.07;;;10.02;;
68214;SDS011;55036;52.138;5.236;2023-04-30T02:52:06;17.35;;;9.95;;
68214;SDS011;55036;52.138;5.236;2023-04-30T02:54:34;17.15;;;10.02;;
68214;SDS011;55036;52.138;5.236;2023-04-30T02:57:01;14.00;;;8.80;;
68214;SDS011;55036;52.138;5.236;2023-04-30T02:59:28;16.17;;;8.77;;
68214;SDS011;55036;52.138;5.236;2023-04-30T03:01:55;16.08;;;9.27;;
68214;SDS011;55036;52.138;5.236;2023-04-30T03:04:22;15.90;;;9.20;;
68214;SDS011;55036;52.138;5.236;2023-04-30T03:06:49;14.48;;;9.68;;
68214;SDS011;55036;52.138;5.236;2023-04-30T03:09:15;18.27;;;10.05;;
68214;SDS011;55036;52.138;5.236;2023-04-30T03:11:43;17.23;;;10.45;;
68214;SDS011;55036;52.138;5.236;2023-04-30T03:14:09;16.58;;;9.85;;
68214;SDS011;55036;52.138;5.236;2023-04-30T03:16:36;16.08;;;10.10;;
68214;SDS011;55036;52.138;5.236;2023-04-30T03:19:03;16.05;;;9.20;;
68214;SDS011;55036;52.138;5.236;2023-04-30T03:21:29;16.05;;;9.63;;
68214;SDS011;55036;52.138;5.236;2023-04-30T03:23:56;13.40;;;9.38;;
68214;SDS011;55036;52.138;5.236;2023-04-30T03:26:23;15.63;;;8.52;;
68214;SDS011;55036;52.138;5.236;2023-04-30T03:28:49;14.10;;;8.70;;
68214;SDS011;55036;52.138;5.236;2023-04-30T03:31:16;16.35;;;9.10;;
68214;SDS011;55036;52.138;5.236;2023-04-30T03:33:43;13.82;;;8.77;;
68214;SDS011;55036;52.138;5.236;2023-04-30T03:36:09;14.80;;;8.63;;
68214;SDS011;55036;52.138;5.236;2023-04-30T03:38:36;16.30;;;9.48;;
68214;SDS011;55036;52.138;5.236;2023-04-30T03:41:03;17.95;;;10.07;;
68214;SDS011;55036;52.138;5.236;2023-04-30T03:43:30;18.10;;;8.73;;
68214;SDS011;55036;52.138;5.236;2023-04-30T03:45:56;12.93;;;9.15;;
68214;SDS011;55036;52.138;5.236;2023-04-30T03:48:23;14.40;;;9.48;;
68214;SDS011;55036;52.138;5.236;2023-04-30T03:50:50;13.70;;;8.35;;
68214;SDS011;55036;52.138;5.236;2023-04-30T03:53:17;12.57;;;8.80;;
68214;SDS011;55036;52.138;5.236;2023-04-30T03:55:43;13.27;;;9.02;;
68214;SDS011;55036;52.138;5.236;2023-04-30T03:58:10;15.05;;;8.75;;
68214;SDS011;55036;52.138;5.236;2023-04-30T04:00:38;12.30;;;7.72;;
68214;SDS011;55036;52.138;5.236;2023-04-30T04:03:06;14.05;;;8.95;;
68214;SDS011;55036;52.138;5.236;2023-04-30T04:05:33;13.82;;;9.20;;
68214;SDS011;55036;52.138;5.236;2023-04-30T04:08:00;12.73;;;7.45;;
68214;SDS011;55036;52.138;5.236;2023-04-30T04:10:27;12.07;;;8.10;;
68214;SDS011;55036;52.138;5.236;2023-04-30T04:12:53;11.82;;;7.82;;
68214;SDS011;55036;52.138;5.236;2023-04-30T04:15:20;14.52;;;8.60;;
68214;SDS011;55036;52.138;5.236;2023-04-30T04:17:47;12.93;;;8.35;;
68214;SDS011;55036;52.138;5.236;2023-04-30T04:20:14;13.43;;;9.43;;
68214;SDS011;55036;52.138;5.236;2023-04-30T04:22:41;12.50;;;8.20;;
68214;SDS011;55036;52.138;5.236;2023-04-30T04:25:07;12.27;;;8.07;;
68214;SDS011;55036;52.138;5.236;2023-04-30T04:27:35;13.65;;;8.25;;
68214;SDS011;55036;52.138;5.236;2023-04-30T04:30:01;13.43;;;8.10;;
68214;SDS011;55036;52.138;5.236;2023-04-30T04:32:28;14.98;;;8.27;;
68214;SDS011;55036;52.138;5.236;2023-04-30T04:34:57;17.02;;;8.43;;
68214;SDS011;55036;52.138;5.236;2023-04-30T04:37:24;14.38;;;7.63;;
68214;SDS011;55036;52.138;5.236;2023-04-30T04:39:51;12.25;;;8.18;;
68214;SDS011;55036;52.138;5.236;2023-04-30T04:42:18;14.70;;;7.68;;
68214;SDS011;55036;52.138;5.236;2023-04-30T04:44:45;11.52;;;7.57;;
68214;SDS011;55036;52.138;5.236;2023-04-30T04:47:12;14.43;;;7.60;;
68214;SDS011;55036;52.138;5.236;2023-04-30T04:49:38;12.73;;;8.10;;
68214;SDS011;55036;52.138;5.236;2023-04-30T04:52:05;11.50;;;6.95;;
68214;SDS011;55036;52.138;5.236;2023-04-30T04:54:32;11.80;;;7.40;;
68214;SDS011;55036;52.138;5.236;2023-04-30T04:56:59;13.93;;;8.57;;
68214;SDS011;55036;52.138;5.236;2023-04-30T04:59:26;10.82;;;7.07;;
68214;SDS011;55036;52.138;5.236;2023-04-30T05:01:52;14.88;;;7.65;;
68214;SDS011;55036;52.138;5.236;2023-04-30T05:04:19;10.75;;;7.10;;
68214;SDS011;55036;52.138;5.236;2023-04-30T05:06:46;11.40;;;7.15;;
68214;SDS011;55036;52.138;5.236;2023-04-30T05:09:13;10.23;;;6.57;;
68214;SDS011;55036;52.138;5.236;2023-04-30T05:11:40;9.93;;;6.13;;
68214;SDS011;55036;52.138;5.236;2023-04-30T05:14:08;12.20;;;6.97;;
68214;SDS011;55036;52.138;5.236;2023-04-30T05:16:35;9.20;;;6.68;;
68214;SDS011;55036;52.138;5.236;2023-04-30T05:19:02;7.20;;;5.63;;
68214;SDS011;55036;52.138;5.236;2023-04-30T05:21:29;8.30;;;6.38;;
68214;SDS011;55036;52.138;5.236;2023-04-30T05:23:57;10.10;;;7.38;;
68214;SDS011;55036;52.138;5.236;2023-04-30T05:26:23;8.63;;;5.85;;
68214;SDS011;55036;52.138;5.236;2023-04-30T05:28:50;8.20;;;5.78;;
68214;SDS011;55036;52.138;5.236;2023-04-30T05:31:17;8.15;;;5.97;;
68214;SDS011;55036;52.138;5.236;2023-04-30T05:33:46;8.57;;;6.30;;
68214;SDS011;55036;52.138;5.236;2023-04-30T05:36:13;7.88;;;5.65;;
68214;SDS011;55036;52.138;5.236;2023-04-30T05:38:40;9.52;;;6.20;;
68214;SDS011;55036;52.138;5.236;2023-04-30T05:41:08;10.38;;;5.72;;
68214;SDS011;55036;52.138;5.236;2023-04-30T05:43:37;8.75;;;5.65;;
68214;SDS011;55036;52.138;5.236;2023-04-30T05:46:04;10.63;;;5.72;;
68214;SDS011;55036;52.138;5.236;2023-04-30T05:48:31;8.65;;;4.75;;
68214;SDS011;55036;52.138;5.236;2023-04-30T05:50:58;7.35;;;5.50;;
68214;SDS011;55036;52.138;5.236;2023-04-30T05:53:24;11.98;;;5.72;;
68214;SDS011;55036;52.138;5.236;2023-04-30T05:55:51;7.80;;;5.22;;
68214;SDS011;55036;52.138;5.236;2023-04-30T05:58:18;9.30;;;5.18;;
68214;SDS011;55036;52.138;5.236;2023-04-30T06:00:47;7.90;;;5.47;;
68214;SDS011;55036;52.138;5.236;2023-04-30T06:03:15;7.17;;;4.90;;
68214;SDS011;55036;52.138;5.236;2023-04-30T06:05:43;7.68;;;5.78;;
68214;SDS011;55036;52.138;5.236;2023-04-30T06:08:10;8.20;;;5.10;;
68214;SDS011;55036;52.138;5.236;2023-04-30T06:10:37;8.57;;;4.60;;
68214;SDS011;55036;52.138;5.236;2023-04-30T06:13:04;7.47;;;4.43;;
68214;SDS011;55036;52.138;5.236;2023-04-30T06:15:32;7.80;;;4.90;;
68214;SDS011;55036;52.138;5.236;2023-04-30T06:17:58;9.30;;;4.22;;
68214;SDS011;55036;52.138;5.236;2023-04-30T06:20:25;9.05;;;4.90;;
68214;SDS011;55036;52.138;5.236;2023-04-30T06:22:52;9.98;;;4.35;;
68214;SDS011;55036;52.138;5.236;2023-04-30T06:25:19;7.22;;;4.22;;
68214;SDS011;55036;52.138;5.236;2023-04-30T06:27:46;9.90;;;4.03;;
68214;SDS011;55036;52.138;5.236;2023-04-30T06:30:12;9.80;;;4.82;;
68214;SDS011;55036;52.138;5.236;2023-04-30T06:32:39;8.73;;;4.25;;
68214;SDS011;55036;52.138;5.236;2023-04-30T06:35:06;5.28;;;3.53;;
68214;SDS011;55036;52.138;5.236;2023-04-30T06:37:33;8.35;;;4.30;;
68214;SDS011;55036;52.138;5.236;2023-04-30T06:40:03;6.00;;;4.10;;
68214;SDS011;55036;52.138;5.236;2023-04-30T06:42:31;5.95;;;4.20;;
68214;SDS011;55036;52.138;5.236;2023-04-30T06:45:00;7.53;;;4.20;;
68214;SDS011;55036;52.138;5.236;2023-04-30T06:47:29;6.95;;;3.72;;
68214;SDS011;55036;52.138;5.236;2023-04-30T06:50:00;7.63;;;3.72;;
68214;SDS011;55036;52.138;5.236;2023-04-30T06:52:27;8.77;;;4.82;;
68214;SDS011;55036;52.138;5.236;2023-04-30T06:54:56;5.63;;;4.10;;
68214;SDS011;55036;52.138;5.236;2023-04-30T06:57:22;8.93;;;4.55;;
68214;SDS011;55036;52.138;5.236;2023-04-30T06:59:50;5.57;;;4.10;;
68214;SDS011;55036;52.138;5.236;2023-04-30T07:02:17;8.02;;;4.57;;
68214;SDS011;55036;52.138;5.236;2023-04-30T07:04:47;4.65;;;3.42;;
68214;SDS011;55036;52.138;5.236;2023-04-30T07:07:14;11.20;;;4.43;;
68214;SDS011;55036;52.138;5.236;2023-04-30T07:09:41;7.10;;;4.30;;
68214;SDS011;55036;52.138;5.236;2023-04-30T07:12:07;7.70;;;4.70;;
68214;SDS011;55036;52.138;5.236;2023-04-30T07:14:37;7.07;;;5.03;;
68214;SDS011;55036;52.138;5.236;2023-04-30T07:17:03;7.97;;;4.20;;
68214;SDS011;55036;52.138;5.236;2023-04-30T07:19:30;6.82;;;5.20;;
68214;SDS011;55036;52.138;5.236;2023-04-30T07:21:57;4.97;;;3.90;;
68214;SDS011;55036;52.138;5.236;2023-04-30T07:24:24;8.88;;;4.85;;
68214;SDS011;55036;52.138;5.236;2023-04-30T07:26:50;7.18;;;4.07;;
68214;SDS011;55036;52.138;5.236;2023-04-30T07:29:17;7.20;;;4.25;;
68214;SDS011;55036;52.138;5.236;2023-04-30T07:31:44;7.63;;;4.30;;
68214;SDS011;55036;52.138;5.236;2023-04-30T07:34:11;6.82;;;4.75;;
68214;SDS011;55036;52.138;5.236;2023-04-30T07:36:38;10.27;;;4.53;;
68214;SDS011;55036;52.138;5.236;2023-04-30T07:39:05;10.20;;;4.50;;
68214;SDS011;55036;52.138;5.236;2023-04-30T07:41:33;5.35;;;3.55;;
68214;SDS011;55036;52.138;5.236;2023-04-30T07:43:59;6.18;;;3.65;;
68214;SDS011;55036;52.138;5.236;2023-04-30T07:46:26;5.47;;;3.65;;
68214;SDS011;55036;52.138;5.236;2023-04-30T07:48:53;9.15;;;3.97;;
68214;SDS011;55036;52.138;5.236;2023-04-30T07:51:19;5.85;;;3.88;;
68214;SDS011;55036;52.138;5.236;2023-04-30T07:53:46;7.55;;;4.63;;
68214;SDS011;55036;52.138;5.236;2023-04-30T07:56:13;6.15;;;3.78;;
68214;SDS011;55036;52.138;5.236;2023-04-30T07:58:39;4.80;;;3.50;;
68214;SDS011;55036;52.138;5.236;2023-04-30T08:01:06;7.72;;;3.40;;
68214;SDS011;55036;52.138;5.236;2023-04-30T08:03:33;8.43;;;3.80;;
68214;SDS011;55036;52.138;5.236;2023-04-30T08:06:00;7.50;;;3.90;;
68214;SDS011;55036;52.138;5.236;2023-04-30T08:08:27;6.05;;;3.88;;
68214;SDS011;55036;52.138;5.236;2023-04-30T08:10:53;7.50;;;3.97;;
68214;SDS011;55036;52.138;5.236;2023-04-30T08:13:20;4.18;;;3.60;;
68214;SDS011;55036;52.138;5.236;2023-04-30T08:15:47;6.57;;;3.67;;
68214;SDS011;55036;52.138;5.236;2023-04-30T08:18:14;6.43;;;4.25;;
68214;SDS011;55036;52.138;5.236;2023-04-30T08:20:41;4.78;;;3.92;;
68214;SDS011;55036;52.138;5.236;2023-04-30T08:23:08;5.95;;;3.50;;
68214;SDS011;55036;52.138;5.236;2023-04-30T08:25:34;4.28;;;3.17;;
68214;SDS011;55036;52.138;5.236;2023-04-30T08:28:02;5.57;;;3.00;;
68214;SDS011;55036;52.138;5.236;2023-04-30T08:30:28;7.63;;;3.78;;
68214;SDS011;55036;52.138;5.236;2023-04-30T08:32:55;10.70;;;3.78;;
68214;SDS011;55036;52.138;5.236;2023-04-30T08:35:23;4.68;;;2.63;;
68214;SDS011;55036;52.138;5.236;2023-04-30T08:37:49;4.80;;;3.22;;
68214;SDS011;55036;52.138;5.236;2023-04-30T08:40:17;6.63;;;3.78;;
68214;SDS011;55036;52.138;5.236;2023-04-30T08:42:45;6.72;;;3.33;;
68214;SDS011;55036;52.138;5.236;2023-04-30T08:45:18;5.57;;;2.78;;
68214;SDS011;55036;52.138;5.236;2023-04-30T08:47:45;5.18;;;2.70;;
68214;SDS011;55036;52.138;5.236;2023-04-30T08:50:14;7.70;;;4.07;;
68214;SDS011;55036;52.138;5.236;2023-04-30T08:52:41;4.47;;;3.80;;
68214;SDS011;55036;52.138;5.236;2023-04-30T08:55:09;5.78;;;3.53;;
68214;SDS011;55036;52.138;5.236;2023-04-30T08:57:36;6.80;;;3.13;;
68214;SDS011;55036;52.138;5.236;2023-04-30T09:00:03;7.25;;;3.28;;
68214;SDS011;55036;52.138;5.236;2023-04-30T09:02:32;8.32;;;3.65;;
68214;SDS011;55036;52.138;5.236;2023-04-30T09:04:59;4.50;;;3.47;;
68214;SDS011;55036;52.138;5.236;2023-04-30T09:07:26;6.07;;;3.67;;
68214;SDS011;55036;52.138;5.236;2023-04-30T09:09:58;4.30;;;3.47;;
68214;SDS011;55036;52.138;5.236;2023-04-30T09:12:25;5.90;;;3.78;;
68214;SDS011;55036;52.138;5.236;2023-04-30T09:15:04;5.65;;;3.50;;
68214;SDS011;55036;52.138;5.236;2023-04-30T09:17:31;6.03;;;3.30;;
68214;SDS011;55036;52.138;5.236;2023-04-30T09:20:06;6.00;;;3.00;;
68214;SDS011;55036;52.138;5.236;2023-04-30T09:22:37;4.68;;;3.05;;
68214;SDS011;55036;52.138;5.236;2023-04-30T09:25:05;3.95;;;2.80;;
68214;SDS011;55036;52.138;5.236;2023-04-30T09:27:33;5.95;;;3.10;;
68214;SDS011;55036;52.138;5.236;2023-04-30T09:30:00;6.53;;;3.15;;
68214;SDS011;55036;52.138;5.236;2023-04-30T09:32:27;4.22;;;3.30;;
68214;SDS011;55036;52.138;5.236;2023-04-30T09:34:54;7.85;;;3.10;;
68214;SDS011;55036;52.138;5.236;2023-04-30T09:37:21;4.95;;;3.22;;
68214;SDS011;55036;52.138;5.236;2023-04-30T09:39:59;5.45;;;3.28;;
68214;SDS011;55036;52.138;5.236;2023-04-30T09:42:26;5.57;;;3.08;;
68214;SDS011;55036;52.138;5.236;2023-04-30T09:44:53;6.43;;;2.80;;
68214;SDS011;55036;52.138;5.236;2023-04-30T09:47:20;3.95;;;2.78;;
68214;SDS011;55036;52.138;5.236;2023-04-30T09:49:47;4.25;;;2.78;;
68214;SDS011;55036;52.138;5.236;2023-04-30T09:54:45;5.03;;;3.15;;
68214;SDS011;55036;52.138;5.236;2023-04-30T09:57:13;5.32;;;3.45;;
68214;SDS011;55036;52.138;5.236;2023-04-30T09:59:45;6.30;;;3.25;;
68214;SDS011;55036;52.138;5.236;2023-04-30T10:02:13;5.50;;;2.80;;
68214;SDS011;55036;52.138;5.236;2023-04-30T10:04:46;5.60;;;3.28;;
68214;SDS011;55036;52.138;5.236;2023-04-30T10:07:16;6.75;;;3.42;;
68214;SDS011;55036;52.138;5.236;2023-04-30T10:09:54;6.60;;;3.65;;
68214;SDS011;55036;52.138;5.236;2023-04-30T10:12:32;4.47;;;3.30;;
68214;SDS011;55036;52.138;5.236;2023-04-30T10:15:19;7.07;;;3.70;;
68214;SDS011;55036;52.138;5.236;2023-04-30T10:18:13;6.38;;;3.50;;
68214;SDS011;55036;52.138;5.236;2023-04-30T10:20:45;7.18;;;3.33;;
68214;SDS011;55036;52.138;5.236;2023-04-30T10:23:14;6.28;;;3.20;;
68214;SDS011;55036;52.138;5.236;2023-04-30T10:25:41;3.70;;;2.50;;
68214;SDS011;55036;52.138;5.236;2023-04-30T10:28:09;7.30;;;3.30;;
68214;SDS011;55036;52.138;5.236;2023-04-30T10:30:36;5.15;;;3.20;;
68214;SDS011;55036;52.138;5.236;2023-04-30T10:33:22;5.43;;;3.20;;
68214;SDS011;55036;52.138;5.236;2023-04-30T10:36:00;4.85;;;3.35;;
68214;SDS011;55036;52.138;5.236;2023-04-30T10:38:31;5.53;;;3.20;;
68214;SDS011;55036;52.138;5.236;2023-04-30T10:40:59;4.95;;;3.00;;
68214;SDS011;55036;52.138;5.236;2023-04-30T10:43:28;5.72;;;2.80;;
68214;SDS011;55036;52.138;5.236;2023-04-30T10:45:56;5.10;;;2.58;;
68214;SDS011;55036;52.138;5.236;2023-04-30T10:48:23;5.07;;;2.53;;
68214;SDS011;55036;52.138;5.236;2023-04-30T10:50:52;4.97;;;3.08;;
68214;SDS011;55036;52.138;5.236;2023-04-30T10:53:21;5.55;;;3.05;;
68214;SDS011;55036;52.138;5.236;2023-04-30T10:55:52;5.60;;;3.38;;
68214;SDS011;55036;52.138;5.236;2023-04-30T10:58:23;7.20;;;3.58;;
68214;SDS011;55036;52.138;5.236;2023-04-30T11:01:00;4.78;;;3.05;;
68214;SDS011;55036;52.138;5.236;2023-04-30T11:03:41;7.32;;;2.50;;
68214;SDS011;55036;52.138;5.236;2023-04-30T11:06:27;4.57;;;2.55;;
68214;SDS011;55036;52.138;5.236;2023-04-30T11:09:19;4.70;;;2.67;;
68214;SDS011;55036;52.138;5.236;2023-04-30T11:12:11;3.78;;;2.22;;
68214;SDS011;55036;52.138;5.236;2023-04-30T11:14:47;3.63;;;2.85;;
68214;SDS011;55036;52.138;5.236;2023-04-30T11:17:22;3.53;;;3.05;;
68214;SDS011;55036;52.138;5.236;2023-04-30T11:19:50;4.70;;;2.58;;
68214;SDS011;55036;52.138;5.236;2023-04-30T11:22:22;3.92;;;2.33;;
68214;SDS011;55036;52.138;5.236;2023-04-30T11:24:50;4.30;;;2.55;;
68214;SDS011;55036;52.138;5.236;2023-04-30T11:27:27;4.80;;;3.13;;
68214;SDS011;55036;52.138;5.236;2023-04-30T11:29:55;4.32;;;2.50;;
68214;SDS011;55036;52.138;5.236;2023-04-30T11:32:24;3.75;;;2.40;;
68214;SDS011;55036;52.138;5.236;2023-04-30T11:34:53;6.03;;;2.85;;
68214;SDS011;55036;52.138;5.236;2023-04-30T11:37:35;4.20;;;2.25;;
68214;SDS011;55036;52.138;5.236;2023-04-30T11:40:04;5.82;;;3.08;;
68214;SDS011;55036;52.138;5.236;2023-04-30T11:42:41;3.67;;;2.42;;
68214;SDS011;55036;52.138;5.236;2023-04-30T11:45:12;4.47;;;1.90;;
68214;SDS011;55036;52.138;5.236;2023-04-30T11:47:50;3.75;;;2.92;;
68214;SDS011;55036;52.138;5.236;2023-04-30T11:50:19;4.70;;;2.15;;
68214;SDS011;55036;52.138;5.236;2023-04-30T11:52:53;5.95;;;2.50;;
68214;SDS011;55036;52.138;5.236;2023-04-30T11:55:21;2.47;;;2.15;;
68214;SDS011;55036;52.138;5.236;2023-04-30T11:57:51;3.58;;;2.30;;
68214;SDS011;55036;52.138;5.236;2023-04-30T12:00:25;4.03;;;2.53;;
68214;SDS011;55036;52.138;5.236;2023-04-30T12:02:53;3.45;;;2.15;;
68214;SDS011;55036;52.138;5.236;2023-04-30T12:05:22;3.25;;;2.20;;
68214;SDS011;55036;52.138;5.236;2023-04-30T12:10:25;3.42;;;2.20;;
68214;SDS011;55036;52.138;5.236;2023-04-30T12:12:52;3.25;;;2.08;;
68214;SDS011;55036;52.138;5.236;2023-04-30T12:15:21;2.63;;;2.10;;
68214;SDS011;55036;52.138;5.236;2023-04-30T12:17:52;4.40;;;2.00;;
68214;SDS011;55036;52.138;5.236;2023-04-30T12:20:21;4.75;;;2.17;;
68214;SDS011;55036;52.138;5.236;2023-04-30T12:22:50;4.30;;;2.00;;
68214;SDS011;55036;52.138;5.236;2023-04-30T12:25:18;3.33;;;2.08;;
68214;SDS011;55036;52.138;5.236;2023-04-30T12:27:47;3.63;;;2.20;;
68214;SDS011;55036;52.138;5.236;2023-04-30T12:30:19;3.08;;;1.65;;
68214;SDS011;55036;52.138;5.236;2023-04-30T12:32:49;3.53;;;1.75;;
68214;SDS011;55036;52.138;5.236;2023-04-30T12:35:17;2.63;;;1.60;;
68214;SDS011;55036;52.138;5.236;2023-04-30T12:37:48;4.30;;;2.17;;
68214;SDS011;55036;52.138;5.236;2023-04-30T12:40:20;4.35;;;2.55;;
68214;SDS011;55036;52.138;5.236;2023-04-30T12:42:47;3.38;;;1.92;;
68214;SDS011;55036;52.138;5.236;2023-04-30T12:48:19;1.90;;;1.35;;
68214;SDS011;55036;52.138;5.236;2023-04-30T12:50:51;2.13;;;1.58;;
68214;SDS011;55036;52.138;5.236;2023-04-30T12:53:18;1.63;;;1.50;;
68214;SDS011;55036;52.138;5.236;2023-04-30T13:01:04;1.98;;;0.95;;
68214;SDS011;55036;52.138;5.236;2023-04-30T13:03:35;2.85;;;1.83;;
68214;SDS011;55036;52.138;5.236;2023-04-30T13:06:02;3.13;;;1.48;;
68214;SDS011;55036;52.138;5.236;2023-04-30T13:08:30;3.80;;;2.15;;
68214;SDS011;55036;52.138;5.236;2023-04-30T13:11:04;2.95;;;1.75;;
68214;SDS011;55036;52.138;5.236;2023-04-30T13:13:31;2.13;;;1.40;;
68214;SDS011;55036;52.138;5.236;2023-04-30T13:15:58;4.68;;;1.35;;
68214;SDS011;55036;52.138;5.236;2023-04-30T13:18:25;1.88;;;1.23;;
68214;SDS011;55036;52.138;5.236;2023-04-30T13:20:52;4.25;;;1.48;;
68214;SDS011;55036;52.138;5.236;2023-04-30T13:23:18;1.25;;;1.02;;
68214;SDS011;55036;52.138;5.236;2023-04-30T13:25:45;1.38;;;0.93;;
68214;SDS011;55036;52.138;5.236;2023-04-30T13:28:12;1.35;;;0.90;;
68214;SDS011;55036;52.138;5.236;2023-04-30T13:30:38;3.72;;;1.10;;
68214;SDS011;55036;52.138;5.236;2023-04-30T13:33:06;2.95;;;1.23;;
68214;SDS011;55036;52.138;5.236;2023-04-30T13:35:32;1.95;;;1.20;;
68214;SDS011;55036;52.138;5.236;2023-04-30T13:37:59;1.98;;;1.10;;
68214;SDS011;55036;52.138;5.236;2023-04-30T13:40:26;1.30;;;1.10;;
68214;SDS011;55036;52.138;5.236;2023-04-30T13:42:53;2.33;;;1.30;;
68214;SDS011;55036;52.138;5.236;2023-04-30T13:45:20;2.47;;;1.67;;
68214;SDS011;55036;52.138;5.236;2023-04-30T13:47:46;4.32;;;1.15;;
68214;SDS011;55036;52.138;5.236;2023-04-30T13:50:13;3.60;;;0.90;;
68214;SDS011;55036;52.138;5.236;2023-04-30T13:52:40;3.10;;;1.15;;
68214;SDS011;55036;52.138;5.236;2023-04-30T13:55:07;2.38;;;1.00;;
68214;SDS011;55036;52.138;5.236;2023-04-30T13:57:34;3.00;;;1.00;;
68214;SDS011;55036;52.138;5.236;2023-04-30T14:00:00;2.45;;;1.15;;
68214;SDS011;55036;52.138;5.236;2023-04-30T14:02:28;1.50;;;1.05;;
68214;SDS011;55036;52.138;5.236;2023-04-30T14:04:54;3.63;;;1.00;;
68214;SDS011;55036;52.138;5.236;2023-04-30T14:07:31;1.58;;;1.05;;
68214;SDS011;55036;52.138;5.236;2023-04-30T14:09:58;1.75;;;1.00;;
68214;SDS011;55036;52.138;5.236;2023-04-30T14:12:25;1.08;;;0.80;;
68214;SDS011;55036;52.138;5.236;2023-04-30T14:14:51;3.60;;;1.27;;
68214;SDS011;55036;52.138;5.236;2023-04-30T14:17:18;1.10;;;0.90;;
68214;SDS011;55036;52.138;5.236;2023-04-30T14:19:45;0.88;;;0.55;;
68214;SDS011;55036;52.138;5.236;2023-04-30T14:22:12;1.65;;;0.75;;
68214;SDS011;55036;52.138;5.236;2023-04-30T14:24:39;3.45;;;1.05;;
68214;SDS011;55036;52.138;5.236;2023-04-30T14:27:06;1.75;;;0.80;;
68214;SDS011;55036;52.138;5.236;2023-04-30T14:29:32;1.85;;;0.90;;
68214;SDS011;55036;52.138;5.236;2023-04-30T14:31:59;1.73;;;0.80;;
68214;SDS011;55036;52.138;5.236;2023-04-30T14:34:27;1.50;;;0.88;;
68214;SDS011;55036;52.138;5.236;2023-04-30T14:36:53;1.45;;;1.35;;
68214;SDS011;55036;52.138;5.236;2023-04-30T14:39:20;2.88;;;0.80;;
68214;SDS011;55036;52.138;5.236;2023-04-30T14:41:47;5.72;;;1.00;;
68214;SDS011;55036;52.138;5.236;2023-04-30T14:44:13;2.65;;;0.80;;
68214;SDS011;55036;52.138;5.236;2023-04-30T14:46:40;2.40;;;1.23;;
68214;SDS011;55036;52.138;5.236;2023-04-30T14:49:07;3.65;;;1.77;;
68214;SDS011;55036;52.138;5.236;2023-04-30T14:51:34;4.07;;;1.33;;
68214;SDS011;55036;52.138;5.236;2023-04-30T14:54:00;2.10;;;0.90;;
68214;SDS011;55036;52.138;5.236;2023-04-30T14:56:27;2.65;;;1.10;;
68214;SDS011;55036;52.138;5.236;2023-04-30T14:58:54;2.45;;;1.15;;
68214;SDS011;55036;52.138;5.236;2023-04-30T15:01:21;2.25;;;1.27;;
68214;SDS011;55036;52.138;5.236;2023-04-30T15:03:48;3.88;;;1.00;;
68214;SDS011;55036;52.138;5.236;2023-04-30T15:06:15;1.10;;;0.80;;
68214;SDS011;55036;52.138;5.236;2023-04-30T15:08:42;1.63;;;0.80;;
68214;SDS011;55036;52.138;5.236;2023-04-30T15:11:08;4.68;;;0.70;;
68214;SDS011;55036;52.138;5.236;2023-04-30T15:13:36;2.83;;;1.25;;
68214;SDS011;55036;52.138;5.236;2023-04-30T15:16:03;0.77;;;0.77;;
68214;SDS011;55036;52.138;5.236;2023-04-30T15:18:30;0.98;;;0.77;;
68214;SDS011;55036;52.138;5.236;2023-04-30T15:20:58;1.38;;;0.80;;
68214;SDS011;55036;52.138;5.236;2023-04-30T15:23:24;2.53;;;1.08;;
68214;SDS011;55036;52.138;5.236;2023-04-30T15:25:52;2.55;;;0.98;;
68214;SDS011;55036;52.138;5.236;2023-04-30T15:28:18;1.52;;;0.85;;
68214;SDS011;55036;52.138;5.236;2023-04-30T15:30:46;4.32;;;0.90;;
68214;SDS011;55036;52.138;5.236;2023-04-30T15:33:13;0.88;;;0.70;;
68214;SDS011;55036;52.138;5.236;2023-04-30T15:35:40;1.55;;;1.05;;
68214;SDS011;55036;52.138;5.236;2023-04-30T15:38:06;1.42;;;1.00;;
68214;SDS011;55036;52.138;5.236;2023-04-30T15:40:34;1.88;;;0.95;;
68214;SDS011;55036;52.138;5.236;2023-04-30T15:43:01;3.03;;;0.90;;
68214;SDS011;55036;52.138;5.236;2023-04-30T15:45:28;1.95;;;0.88;;
68214;SDS011;55036;52.138;5.236;2023-04-30T15:47:55;3.28;;;0.95;;
68214;SDS011;55036;52.138;5.236;2023-04-30T15:50:22;4.00;;;3.15;;
68214;SDS011;55036;52.138;5.236;2023-04-30T15:52:48;7.32;;;5.38;;
68214;SDS011;55036;52.138;5.236;2023-04-30T15:55:15;4.43;;;3.15;;
68214;SDS011;55036;52.138;5.236;2023-04-30T15:57:42;13.43;;;10.05;;
68214;SDS011;55036;52.138;5.236;2023-04-30T16:00:09;3.88;;;2.60;;
68214;SDS011;55036;52.138;5.236;2023-04-30T16:02:37;11.55;;;8.45;;